Portada
METAR-TAF:

METAR-TAF

Aeropuertos :

Aeropuerto Internacional Gengis Kan

Ulán Bator, Mongolia

latitud: 47-55N, longitud: 106-52E, altitud: 1306 m

Observación

El informe se hizo hace 33 minutos, a las 06:30 UTC
Viento 4 kt del sur-suroeste
Temperatura -11°C
Humedad 61%
Presión 1025 hPa
Visibilidad 10 km o más
sin nubes por debajo de 1500 m y sin presencia de cumulonimbus.

METAR: ZMUB 210630Z 20002MPS CAVOK M11/M17 Q1025 NOSIG RMK QFE660.7 61

Hora: 15:03 (07:03 UTC)

Pronóstico

El informe se hizo hace 2 horas y 33 minutos, a las 04:30 UTC
Pronóstico válido del 21 a las 06 UTC al 22 a las 12 UTC
Viento 4 kt con dirección variable
Visibilidad 10 km o más
Nubes dispersas a una altura de 10000 ft
Evolucionando progresivamente
del 21 a las 18 UTC al 21 a las 20 UTC
Visibilidad: 6000 m

TAF: ZMUB 210430Z 2106/2212 VRB02MPS 9999 SCT100 TXM10/2107Z TNM24/2123Z BECMG 2118/2120 6000

Observaciones y pronósticos meteorológicos de más de 4000 aeropuertos (mensajes METAR y TAF).

Los puntos amarillos y rojos representan las estaciones disponibles.

Ponga el ratón en el punto deseado para ver el nombre de la estación.

Haga clic para ver las observaciones y los pronósticos meteorológicos.

Para cambiar el mapa : haga clic en los botones verdes con una cruz de color negro para hacer un zoom, en el botón verde con un guión para alejar o en las flechas verdes para mapas adyacentes.


METAR-TAF: